createdAt,value
2022-10-21T00:02:03.526Z,9.38
2022-10-21T00:04:34.315Z,9.37
2022-10-21T00:07:00.770Z,9.41
2022-10-21T00:09:27.219Z,9.49
2022-10-21T00:11:53.723Z,9.56
2022-10-21T00:14:20.191Z,9.47
2022-10-21T00:16:46.672Z,9.53
2022-10-21T00:19:13.136Z,9.47
2022-10-21T00:21:40.934Z,9.44
2022-10-21T00:24:07.489Z,9.41
2022-10-21T00:26:37.615Z,9.49
2022-10-21T00:29:05.099Z,9.51
2022-10-21T00:31:31.729Z,9.50
2022-10-21T00:33:58.176Z,9.55
2022-10-21T00:36:24.642Z,9.53
2022-10-21T00:38:51.201Z,9.52
2022-10-21T00:41:19.048Z,9.41
2022-10-21T00:44:07.992Z,9.43
2022-10-21T00:46:57.540Z,9.39
2022-10-21T00:49:44.057Z,9.45
2022-10-21T00:52:17.091Z,9.43
2022-10-21T00:54:44.249Z,9.39
2022-10-21T00:57:11.161Z,9.37
2022-10-21T00:59:41.937Z,9.36
2022-10-21T01:02:08.593Z,9.39
2022-10-21T01:04:35.056Z,9.39
2022-10-21T01:07:02.470Z,9.42
2022-10-21T01:09:29.447Z,9.49
2022-10-21T01:11:56.575Z,9.47
2022-10-21T01:14:56.276Z,9.51
2022-10-21T01:17:54.118Z,9.49
2022-10-21T01:20:35.933Z,9.53
2022-10-21T01:23:38.692Z,9.62
2022-10-21T01:26:26.041Z,9.63
2022-10-21T01:29:10.997Z,9.60
2022-10-21T01:31:50.569Z,9.72
2022-10-21T01:34:41.177Z,9.74
2022-10-21T01:37:14.695Z,9.70
2022-10-21T01:39:55.427Z,9.75
2022-10-21T01:42:31.326Z,9.66
2022-10-21T01:45:03.452Z,9.65
2022-10-21T01:47:42.210Z,9.71
2022-10-21T01:50:22.682Z,9.68
2022-10-21T01:52:50.331Z,9.64
2022-10-21T01:55:20.565Z,9.66
2022-10-21T01:57:51.670Z,9.70
2022-10-21T02:00:18.602Z,9.58
2022-10-21T02:02:48.171Z,9.65
2022-10-21T02:05:19.543Z,9.66
2022-10-21T02:07:45.987Z,9.68
2022-10-21T02:10:12.579Z,9.58
2022-10-21T02:12:40.719Z,9.56
2022-10-21T02:15:09.120Z,9.53
2022-10-21T02:17:36.936Z,9.59
2022-10-21T02:20:06.691Z,9.54
2022-10-21T02:22:34.091Z,9.54
2022-10-21T02:25:23.231Z,9.55
2022-10-21T02:27:50.290Z,9.50
2022-10-21T02:30:16.836Z,9.51
2022-10-21T02:32:52.087Z,9.49
2022-10-21T02:35:53.302Z,9.51
2022-10-21T02:38:25.909Z,9.47
2022-10-21T02:40:56.583Z,9.53
2022-10-21T02:43:27.388Z,9.47
2022-10-21T02:45:59.263Z,9.44
2022-10-21T02:48:25.731Z,9.40
2022-10-21T02:50:52.197Z,9.44
2022-10-21T02:53:18.692Z,9.49
2022-10-21T02:55:45.178Z,9.47
2022-10-21T02:58:11.690Z,9.41
2022-10-21T03:00:38.211Z,9.44
2022-10-21T03:03:04.695Z,9.49
2022-10-21T03:07:58.550Z,9.40
2022-10-21T03:10:25.023Z,9.33
2022-10-21T03:12:51.483Z,9.37
2022-10-21T03:15:17.947Z,9.36
2022-10-21T03:17:44.475Z,9.30
2022-10-21T03:20:10.944Z,9.29
2022-10-21T03:22:37.439Z,9.24
2022-10-21T03:25:04.659Z,9.24
2022-10-21T03:30:06.674Z,9.30
2022-10-21T03:32:33.456Z,9.32
2022-10-21T03:34:59.911Z,9.26
2022-10-21T03:37:26.375Z,9.27
2022-10-21T03:39:52.874Z,9.29
2022-10-21T03:42:19.330Z,9.24
2022-10-21T03:44:45.780Z,9.33
2022-10-21T03:47:12.260Z,9.34
2022-10-21T03:49:38.777Z,9.32
2022-10-21T03:52:05.238Z,9.33
2022-10-21T03:54:31.794Z,9.43
2022-10-21T03:56:58.244Z,9.41
2022-10-21T03:59:24.740Z,9.34
2022-10-21T04:01:51.339Z,9.36
2022-10-21T04:04:17.818Z,9.42
2022-10-21T04:06:44.335Z,9.35
2022-10-21T04:09:11.046Z,9.39
2022-10-21T04:11:37.551Z,9.45
2022-10-21T04:14:04.119Z,9.37
2022-10-21T04:16:30.611Z,9.39
2022-10-21T04:18:57.068Z,9.47
2022-10-21T04:23:54.890Z,9.28
2022-10-21T04:26:21.698Z,9.25
2022-10-21T04:28:48.229Z,9.17
2022-10-21T04:31:14.677Z,9.21
2022-10-21T04:33:41.148Z,9.32
2022-10-21T04:36:07.719Z,9.30
2022-10-21T04:38:34.305Z,9.25
2022-10-21T04:41:03.023Z,9.22
2022-10-21T04:43:29.960Z,9.18
2022-10-21T04:45:56.438Z,9.20
2022-10-21T04:48:23.041Z,9.25
2022-10-21T04:50:50.676Z,9.12
2022-10-21T04:53:17.462Z,9.14
2022-10-21T04:55:43.980Z,9.18
2022-10-21T04:58:10.501Z,9.08
2022-10-21T05:00:37.003Z,8.99
2022-10-21T05:03:03.646Z,9.00
2022-10-21T05:05:30.151Z,9.00
2022-10-21T05:07:56.731Z,9.00
2022-10-21T05:10:23.876Z,8.94
2022-10-21T05:12:50.400Z,8.89
2022-10-21T05:15:17.043Z,9.02
2022-10-21T05:17:43.507Z,8.92
2022-10-21T05:20:10.506Z,8.72
2022-10-21T05:22:37.348Z,8.68
2022-10-21T05:25:04.497Z,8.74
2022-10-21T05:27:30.959Z,8.70
2022-10-21T05:29:58.312Z,8.67
2022-10-21T05:32:25.133Z,8.72
2022-10-21T05:34:51.611Z,8.93
2022-10-21T05:37:18.109Z,8.75
2022-10-21T05:39:44.763Z,8.86
2022-10-21T05:42:11.244Z,8.87
2022-10-21T05:44:37.704Z,8.82
2022-10-21T05:47:04.571Z,8.72
2022-10-21T05:49:31.046Z,8.79
2022-10-21T05:51:57.532Z,8.65
2022-10-21T05:54:23.984Z,8.55
2022-10-21T05:56:50.626Z,8.55
2022-10-21T05:59:17.147Z,8.66
2022-10-21T06:01:43.811Z,8.46
2022-10-21T06:04:10.533Z,8.46
2022-10-21T06:06:37.151Z,8.25
2022-10-21T06:09:04.015Z,8.16
2022-10-21T06:11:30.699Z,8.32
2022-10-21T06:13:57.275Z,8.21
2022-10-21T06:16:23.728Z,8.24
2022-10-21T06:18:50.222Z,8.22
2022-10-21T06:21:16.749Z,8.19
2022-10-21T06:23:43.236Z,8.36
2022-10-21T06:26:14.432Z,8.45
2022-10-21T06:28:42.077Z,8.54
2022-10-21T06:31:09.608Z,8.59
2022-10-21T06:33:36.105Z,8.65
2022-10-21T06:36:02.613Z,8.73
2022-10-21T06:38:29.141Z,8.72
2022-10-21T06:41:03.978Z,8.77
2022-10-21T06:43:30.832Z,8.88
2022-10-21T06:46:07.818Z,9.11
2022-10-21T06:48:34.280Z,9.00
2022-10-21T06:51:12.600Z,8.97
2022-10-21T06:53:39.556Z,9.24
2022-10-21T06:56:17.374Z,9.58
2022-10-21T06:58:47.934Z,9.41
2022-10-21T07:01:41.034Z,9.29
2022-10-21T07:04:08.788Z,9.26
2022-10-21T07:06:35.640Z,9.23
2022-10-21T07:09:03.173Z,9.19
2022-10-21T07:11:29.740Z,9.31
2022-10-21T07:13:56.462Z,9.31
2022-10-21T07:16:26.169Z,9.21
2022-10-21T07:18:53.158Z,9.24
2022-10-21T07:21:21.707Z,9.17
2022-10-21T07:23:51.067Z,9.20
2022-10-21T07:26:18.795Z,9.55
2022-10-21T07:28:47.515Z,9.78
2022-10-21T07:31:15.412Z,9.79
2022-10-21T07:33:42.368Z,9.80
2022-10-21T07:36:15.314Z,9.78
2022-10-21T07:38:46.473Z,10.11
2022-10-21T07:41:20.970Z,9.82
2022-10-21T07:43:48.067Z,9.76
2022-10-21T07:46:15.028Z,9.69
2022-10-21T07:48:41.562Z,9.71
2022-10-21T07:51:10.746Z,9.68
2022-10-21T07:53:37.761Z,9.83
2022-10-21T07:56:07.421Z,9.65
2022-10-21T07:58:34.150Z,9.78
2022-10-21T08:01:01.587Z,9.72
2022-10-21T08:03:28.604Z,9.77
2022-10-21T08:05:55.401Z,9.78
2022-10-21T08:08:21.871Z,9.79
2022-10-21T08:13:16.942Z,9.79
2022-10-21T08:15:44.517Z,9.88
2022-10-21T08:18:11.234Z,9.95
2022-10-21T08:20:41.734Z,10.04
2022-10-21T08:23:08.320Z,10.10
2022-10-21T08:25:35.533Z,10.13
2022-10-21T08:28:03.008Z,10.15
2022-10-21T08:30:32.229Z,10.01
2022-10-21T08:32:59.366Z,10.05
2022-10-21T08:35:29.251Z,10.01
2022-10-21T08:37:55.783Z,10.13
2022-10-21T08:40:22.496Z,10.15
2022-10-21T08:42:49.103Z,10.28
2022-10-21T08:45:44.031Z,10.43
2022-10-21T08:48:15.263Z,10.37
2022-10-21T08:50:46.653Z,10.38
2022-10-21T08:53:35.769Z,10.47
2022-10-21T08:56:07.398Z,10.54
2022-10-21T08:58:33.989Z,10.74
2022-10-21T09:01:23.871Z,10.71
2022-10-21T09:04:13.331Z,10.66
2022-10-21T09:06:49.487Z,10.66
2022-10-21T09:09:48.287Z,10.62
2022-10-21T09:12:26.839Z,10.54
2022-10-21T09:15:08.650Z,10.68
2022-10-21T09:17:49.574Z,10.62
2022-10-21T09:20:15.970Z,10.63
2022-10-21T09:23:03.907Z,10.60
2022-10-21T09:26:01.332Z,10.77
2022-10-21T09:28:29.162Z,10.75
2022-10-21T09:30:56.057Z,10.78
2022-10-21T09:33:29.000Z,10.87
2022-10-21T09:36:00.154Z,10.87
2022-10-21T09:38:38.586Z,10.90
2022-10-21T09:41:05.897Z,10.84
2022-10-21T09:43:32.371Z,10.83
2022-10-21T09:45:58.917Z,10.86
2022-10-21T09:48:33.703Z,10.88
2022-10-21T09:51:09.575Z,10.96
2022-10-21T09:53:52.958Z,10.92
2022-10-21T09:56:22.398Z,10.84
2022-10-21T09:59:07.715Z,10.84
2022-10-21T10:01:36.179Z,10.83
2022-10-21T10:04:30.619Z,10.85
2022-10-21T10:07:00.350Z,10.88
2022-10-21T10:09:36.367Z,10.82
2022-10-21T10:12:16.243Z,10.84
2022-10-21T10:14:46.352Z,10.85
2022-10-21T10:17:34.538Z,10.79
2022-10-21T10:20:04.066Z,10.78
2022-10-21T10:22:31.486Z,10.89
2022-10-21T10:25:22.781Z,10.85
2022-10-21T10:27:56.757Z,10.95
2022-10-21T10:30:24.698Z,10.93
2022-10-21T10:32:52.648Z,11.10
2022-10-21T10:35:33.251Z,11.17
2022-10-21T10:38:02.170Z,11.20
2022-10-21T10:40:41.885Z,11.13
2022-10-21T10:43:20.499Z,11.27
2022-10-21T10:45:50.077Z,11.33
2022-10-21T10:48:22.934Z,11.35
2022-10-21T10:50:50.481Z,11.66
2022-10-21T10:53:34.557Z,11.75
2022-10-21T10:56:03.939Z,11.90
2022-10-21T10:58:33.995Z,11.88
2022-10-21T11:01:02.841Z,11.97
2022-10-21T11:03:41.237Z,11.76
2022-10-21T11:06:16.813Z,11.94
2022-10-21T11:08:48.445Z,12.12
2022-10-21T11:11:23.916Z,12.02
2022-10-21T11:13:50.490Z,12.14
2022-10-21T11:16:36.794Z,12.16
2022-10-21T11:19:20.274Z,12.10
2022-10-21T11:21:50.465Z,12.19
2022-10-21T11:24:41.986Z,12.19
2022-10-21T11:27:36.607Z,12.14
2022-10-21T11:30:19.675Z,12.02
2022-10-21T11:32:58.596Z,12.11
2022-10-21T11:35:38.195Z,12.04
2022-10-21T11:38:16.798Z,12.08
2022-10-21T11:40:54.508Z,12.08
2022-10-21T11:43:58.230Z,12.14
2022-10-21T11:46:42.762Z,12.14
2022-10-21T11:49:27.715Z,12.17
2022-10-21T11:52:22.939Z,12.24
2022-10-21T11:55:09.338Z,12.19
2022-10-21T11:58:08.045Z,12.38
2022-10-21T12:00:45.241Z,12.40
2022-10-21T12:03:47.667Z,12.33
2022-10-21T12:06:38.391Z,12.40
2022-10-21T12:09:27.155Z,12.39
2022-10-21T12:11:57.780Z,12.56
2022-10-21T12:14:31.277Z,12.44
2022-10-21T12:17:00.797Z,12.39
2022-10-21T12:19:27.987Z,12.49
2022-10-21T12:21:54.481Z,12.46
2022-10-21T12:24:33.905Z,12.54
2022-10-21T12:27:19.180Z,12.40
2022-10-21T12:30:12.856Z,12.39
2022-10-21T12:32:54.038Z,12.52
2022-10-21T12:35:40.336Z,12.45
2022-10-21T12:38:19.688Z,12.33
2022-10-21T12:40:46.514Z,12.45
2022-10-21T12:43:23.630Z,12.40
2022-10-21T12:46:08.063Z,12.36
2022-10-21T12:48:40.469Z,12.52
2022-10-21T12:51:21.303Z,12.59
2022-10-21T12:53:53.896Z,12.65
2022-10-21T12:56:42.195Z,12.58
2022-10-21T12:59:29.988Z,12.68
2022-10-21T13:02:05.522Z,12.64
2022-10-21T13:04:31.930Z,12.73
2022-10-21T13:07:19.423Z,12.65
2022-10-21T13:09:52.100Z,12.82
2022-10-21T13:12:23.429Z,12.87
2022-10-21T13:14:50.350Z,12.87
2022-10-21T13:17:28.359Z,12.91
2022-10-21T13:20:06.837Z,12.85
2022-10-21T13:22:35.235Z,12.76
2022-10-21T13:25:22.492Z,12.84
2022-10-21T13:27:52.760Z,12.99
2022-10-21T13:30:48.583Z,13.01
2022-10-21T13:33:17.835Z,13.07
2022-10-21T13:35:52.087Z,12.99
2022-10-21T13:38:21.559Z,12.93
2022-10-21T13:40:53.791Z,12.90
2022-10-21T13:43:28.759Z,12.99
2022-10-21T13:46:07.693Z,13.04
2022-10-21T13:48:42.533Z,13.00
2022-10-21T13:51:22.128Z,13.09
2022-10-21T13:53:51.904Z,13.07
2022-10-21T13:56:23.753Z,13.06
2022-10-21T13:58:50.501Z,13.09
2022-10-21T14:01:25.739Z,13.14
2022-10-21T14:04:11.032Z,13.05
2022-10-21T14:06:40.895Z,13.06
2022-10-21T14:09:10.292Z,13.04
2022-10-21T14:11:43.231Z,13.03
2022-10-21T14:14:10.949Z,12.99
2022-10-21T14:16:45.730Z,13.06
2022-10-21T14:19:18.723Z,13.01
2022-10-21T14:21:46.932Z,12.99
2022-10-21T14:24:45.482Z,12.92
2022-10-21T14:27:32.187Z,12.95
2022-10-21T14:30:00.853Z,12.97
2022-10-21T14:32:27.464Z,13.00
2022-10-21T14:35:14.086Z,13.04
2022-10-21T14:37:43.058Z,13.06
2022-10-21T14:40:32.615Z,12.99
2022-10-21T14:43:16.964Z,13.02
2022-10-21T14:45:51.481Z,13.05
2022-10-21T14:48:34.839Z,12.98
2022-10-21T14:51:03.777Z,12.97
2022-10-21T14:53:33.273Z,13.05
2022-10-21T14:56:01.380Z,13.01
2022-10-21T14:58:37.835Z,13.09
2022-10-21T15:01:14.366Z,13.00
2022-10-21T15:03:44.688Z,13.08
2022-10-21T15:06:28.751Z,13.05
2022-10-21T15:09:04.872Z,13.06
2022-10-21T15:11:40.536Z,12.87
2022-10-21T15:14:26.411Z,12.89
2022-10-21T15:16:55.342Z,12.87
2022-10-21T15:19:25.936Z,12.98
2022-10-21T15:21:56.850Z,12.74
2022-10-21T15:24:25.531Z,12.76
2022-10-21T15:26:53.286Z,12.84
2022-10-21T15:29:29.297Z,12.74
2022-10-21T15:31:56.835Z,12.84
2022-10-21T15:34:23.353Z,12.65
2022-10-21T15:36:50.178Z,12.79
2022-10-21T15:39:16.708Z,12.71
2022-10-21T15:41:43.418Z,12.68
2022-10-21T15:44:19.146Z,12.69
2022-10-21T15:46:47.041Z,12.67
2022-10-21T15:49:19.774Z,12.79
2022-10-21T15:51:46.735Z,12.77
2022-10-21T15:54:13.855Z,12.73
2022-10-21T15:56:40.310Z,12.83
2022-10-21T15:59:08.669Z,12.69
2022-10-21T16:01:35.217Z,12.84
2022-10-21T16:04:02.976Z,12.74
2022-10-21T16:06:29.505Z,12.69
2022-10-21T16:08:56.089Z,12.66
2022-10-21T16:11:34.653Z,12.70
2022-10-21T16:14:09.957Z,12.84
2022-10-21T16:16:37.282Z,12.95
2022-10-21T16:19:03.843Z,12.80
2022-10-21T16:21:30.309Z,12.65
2022-10-21T16:23:58.334Z,12.61
2022-10-21T16:26:26.823Z,12.71
2022-10-21T16:28:55.031Z,12.68
2022-10-21T16:31:21.638Z,12.63
2022-10-21T16:33:48.274Z,12.62
2022-10-21T16:36:17.225Z,12.66
2022-10-21T16:38:45.411Z,12.61
2022-10-21T16:41:18.133Z,12.56
2022-10-21T16:43:44.930Z,12.56
2022-10-21T16:46:35.684Z,12.47
2022-10-21T16:49:06.911Z,12.52
2022-10-21T16:51:38.203Z,12.43
2022-10-21T16:54:05.269Z,12.42
2022-10-21T16:56:31.740Z,12.37
2022-10-21T16:58:58.215Z,12.30
2022-10-21T17:01:24.889Z,12.34
2022-10-21T17:03:51.872Z,12.28
2022-10-21T17:06:21.127Z,12.18
2022-10-21T17:08:51.633Z,12.16
2022-10-21T17:11:25.389Z,12.14
2022-10-21T17:13:51.896Z,12.10
2022-10-21T17:16:20.075Z,12.16
2022-10-21T17:18:47.552Z,12.09
2022-10-21T17:21:20.713Z,12.10
2022-10-21T17:23:48.735Z,12.12
2022-10-21T17:26:15.307Z,12.07
2022-10-21T17:28:41.796Z,12.05
2022-10-21T17:31:15.175Z,12.09
2022-10-21T17:33:42.292Z,12.05
2022-10-21T17:36:08.762Z,12.12
2022-10-21T17:38:35.374Z,12.06
2022-10-21T17:41:01.829Z,12.12
2022-10-21T17:43:28.343Z,12.11
2022-10-21T17:45:54.801Z,12.09
2022-10-21T17:48:21.267Z,12.08
2022-10-21T17:50:53.960Z,12.11
2022-10-21T17:53:20.539Z,11.97
2022-10-21T17:55:58.373Z,12.03
2022-10-21T17:58:25.082Z,12.02
2022-10-21T18:00:51.695Z,11.97
2022-10-21T18:03:18.389Z,11.92
2022-10-21T18:05:46.340Z,11.83
2022-10-21T18:08:12.803Z,11.87
2022-10-21T18:10:39.292Z,11.86
2022-10-21T18:13:05.759Z,11.87
2022-10-21T18:15:32.283Z,11.95
2022-10-21T18:17:58.968Z,11.93
2022-10-21T18:20:25.506Z,11.95
2022-10-21T18:22:52.301Z,11.91
2022-10-21T18:25:18.746Z,11.87
2022-10-21T18:27:45.226Z,11.88
2022-10-21T18:30:11.837Z,11.94
2022-10-21T18:32:39.111Z,11.87
2022-10-21T18:35:06.169Z,11.85
2022-10-21T18:37:33.938Z,11.82
2022-10-21T18:40:00.382Z,11.88
2022-10-21T18:42:26.847Z,11.83
2022-10-21T18:44:53.324Z,11.83
2022-10-21T18:47:19.782Z,11.78
2022-10-21T18:49:46.239Z,11.72
2022-10-21T18:52:13.458Z,11.68
2022-10-21T18:54:39.919Z,11.67
2022-10-21T18:57:09.776Z,11.60
2022-10-21T18:59:36.384Z,11.54
2022-10-21T19:02:03.884Z,11.49
2022-10-21T19:04:30.557Z,11.44
2022-10-21T19:06:57.007Z,11.43
2022-10-21T19:09:25.793Z,11.46
2022-10-21T19:11:53.165Z,11.40
2022-10-21T19:14:20.180Z,11.43
2022-10-21T19:16:47.844Z,11.42
2022-10-21T19:19:15.743Z,11.41
2022-10-21T19:21:42.240Z,11.43
2022-10-21T19:24:09.230Z,11.52
2022-10-21T19:26:37.930Z,11.49
2022-10-21T19:29:07.143Z,11.57
2022-10-21T19:31:36.084Z,11.48
2022-10-21T19:34:06.076Z,11.48
2022-10-21T19:36:32.578Z,11.46
2022-10-21T19:38:59.078Z,11.44
2022-10-21T19:41:25.546Z,11.48
2022-10-21T19:43:56.281Z,11.53
2022-10-21T19:46:25.516Z,11.57
2022-10-21T19:48:52.730Z,11.60
2022-10-21T19:51:21.483Z,11.53
2022-10-21T19:53:48.645Z,11.48
2022-10-21T19:56:16.078Z,11.57
2022-10-21T19:58:48.416Z,11.65
2022-10-21T20:01:17.577Z,11.66
2022-10-21T20:03:45.632Z,11.79
2022-10-21T20:06:18.362Z,11.81
2022-10-21T20:08:44.862Z,11.90
2022-10-21T20:11:28.588Z,11.88
2022-10-21T20:13:55.393Z,11.91
2022-10-21T20:16:33.486Z,11.88
2022-10-21T20:19:00.977Z,11.97
2022-10-21T20:21:27.731Z,11.98
2022-10-21T20:23:54.831Z,12.04
2022-10-21T20:26:22.567Z,12.05
2022-10-21T20:28:50.768Z,12.06
2022-10-21T20:31:17.842Z,12.06
2022-10-21T20:33:49.558Z,12.03
2022-10-21T20:36:23.808Z,11.97
2022-10-21T20:38:51.632Z,12.15
2022-10-21T20:41:23.092Z,12.04
2022-10-21T20:43:54.015Z,12.12
2022-10-21T20:46:22.345Z,12.27
2022-10-21T20:48:50.287Z,12.20
2022-10-21T20:51:19.275Z,12.19
2022-10-21T20:53:57.007Z,12.26
2022-10-21T20:56:26.596Z,12.27
2022-10-21T20:58:53.246Z,12.19
2022-10-21T21:01:22.325Z,12.22
2022-10-21T21:03:49.390Z,12.12
2022-10-21T21:06:15.927Z,12.20
2022-10-21T21:08:48.997Z,12.38
2022-10-21T21:11:20.416Z,12.36
2022-10-21T21:13:47.031Z,12.40
2022-10-21T21:16:21.598Z,12.40
2022-10-21T21:18:54.129Z,12.45
2022-10-21T21:21:21.912Z,12.43
2022-10-21T21:23:48.718Z,12.52
2022-10-21T21:26:21.051Z,12.52
2022-10-21T21:28:47.867Z,12.57
2022-10-21T21:31:15.006Z,12.56
2022-10-21T21:33:42.435Z,12.54
2022-10-21T21:36:09.289Z,12.53
2022-10-21T21:38:35.813Z,12.54
2022-10-21T21:41:04.519Z,12.62
2022-10-21T21:43:33.775Z,12.61
2022-10-21T21:46:01.561Z,12.62
2022-10-21T21:48:28.347Z,12.69
2022-10-21T21:51:06.424Z,12.75
2022-10-21T21:53:33.175Z,12.79
2022-10-21T21:56:03.811Z,12.94
2022-10-21T21:58:30.515Z,12.89
2022-10-21T22:00:57.002Z,12.82
2022-10-21T22:03:23.731Z,12.88
2022-10-21T22:05:50.238Z,12.81
2022-10-21T22:08:16.804Z,12.82
2022-10-21T22:10:43.319Z,12.84
2022-10-21T22:13:09.959Z,12.87
2022-10-21T22:15:47.729Z,12.92
2022-10-21T22:18:15.067Z,12.85
2022-10-21T22:20:41.623Z,12.83
2022-10-21T22:23:08.119Z,12.79
2022-10-21T22:25:35.039Z,12.83
2022-10-21T22:28:01.644Z,12.83
2022-10-21T22:30:28.130Z,12.80
2022-10-21T22:32:54.624Z,12.82
2022-10-21T22:35:21.099Z,12.83
2022-10-21T22:37:47.571Z,12.77
2022-10-21T22:40:14.049Z,12.72
2022-10-21T22:42:40.574Z,12.70
2022-10-21T22:45:07.845Z,12.77
2022-10-21T22:47:34.803Z,12.76
2022-10-21T22:50:01.274Z,12.70
2022-10-21T22:52:27.719Z,12.72
2022-10-21T22:54:54.258Z,12.69
2022-10-21T22:57:20.718Z,12.75
2022-10-21T22:59:52.053Z,12.88
2022-10-21T23:02:19.828Z,12.75
2022-10-21T23:04:46.311Z,12.84
2022-10-21T23:07:13.040Z,12.74
2022-10-21T23:09:39.581Z,12.66
2022-10-21T23:12:06.117Z,12.83
2022-10-21T23:14:32.725Z,12.66
2022-10-21T23:16:59.229Z,12.65
2022-10-21T23:19:25.710Z,12.68
2022-10-21T23:21:52.198Z,12.83
2022-10-21T23:24:18.714Z,12.72
2022-10-21T23:26:45.187Z,12.70
2022-10-21T23:29:11.757Z,12.70
2022-10-21T23:31:38.266Z,12.66
2022-10-21T23:34:05.952Z,12.60
2022-10-21T23:36:33.473Z,12.45
2022-10-21T23:39:00.062Z,12.44
2022-10-21T23:41:26.564Z,12.38
2022-10-21T23:43:53.195Z,12.51
2022-10-21T23:46:20.331Z,12.59
2022-10-21T23:48:46.831Z,12.64
2022-10-21T23:51:13.598Z,12.56
2022-10-21T23:53:40.150Z,12.55
2022-10-21T23:56:07.108Z,12.54
2022-10-21T23:58:33.671Z,12.64
